Time;durP1;ratioP1;P1;durP2;ratioP2;P2;SDS_P1;SDS_P2;PMS_P1;PMS_P2;Temp;Humidity;BMP_temperature;BMP_pressure;BME280_temperature;BME280_humidity;BME280_pressure;Samples;Min_cycle;Max_cycle;Signal;HPM_P1;HPM_P2
2022/10/14 00:01:30;;;;;;;0.50;0.50;;;;;;;14.10;100.00;100591.34;5091589;28;20616;-73
2022/10/14 00:03:57;;;;;;;0.60;0.60;;;;;;;14.41;100.00;100622.97;5091277;28;20230;-73
2022/10/14 00:06:25;;;;;;;0.70;0.70;;;;;;;14.37;100.00;100620.34;5091146;28;20229;-73
2022/10/14 00:08:53;;;;;;;0.80;0.80;;;;;;;13.69;100.00;100520.63;5090936;28;20665;-72
2022/10/14 00:11:21;;;;;;;0.80;0.80;;;;;;;14.24;100.00;100615.81;5091239;28;20202;-73
2022/10/14 00:13:50;;;;;;;0.70;0.70;;;;;;;14.20;100.00;100614.03;5091040;28;20190;-73
2022/10/14 00:16:20;;;;;;;0.70;0.70;;;;;;;14.15;100.00;100615.75;5090733;28;20695;-73
2022/10/14 00:18:47;;;;;;;0.70;0.70;;;;;;;14.00;100.00;100599.97;5090932;28;20256;-73
2022/10/14 00:21:14;;;;;;;0.90;0.90;;;;;;;14.12;100.00;100609.63;5090853;28;20198;-73
2022/10/14 00:23:41;;;;;;;0.70;0.70;;;;;;;13.98;100.00;100596.47;5090802;28;20202;-73
2022/10/14 00:26:15;;;;;;;0.70;0.70;;;;;;;14.14;100.00;100595.75;5091006;28;20205;-73
2022/10/14 00:28:42;;;;;;;0.65;0.65;;;;;;;14.09;100.00;100609.63;5090755;28;20194;-73
2022/10/14 00:31:10;;;;;;;0.70;0.70;;;;;;;14.20;100.00;100606.22;5090555;28;20209;-73
2022/10/14 00:33:37;;;;;;;0.75;0.75;;;;;;;14.11;100.00;100611.38;5090561;28;20198;-73
2022/10/14 00:36:05;;;;;;;0.70;0.70;;;;;;;14.20;100.00;100613.16;5090567;28;20248;-72
2022/10/14 00:38:33;;;;;;;0.70;0.70;;;;;;;14.15;100.00;100609.66;5090577;28;20198;-73
2022/10/14 00:41:00;;;;;;;0.70;0.70;;;;;;;14.18;100.00;100609.69;5090839;28;20198;-73
2022/10/14 00:43:28;;;;;;;0.70;0.70;;;;;;;14.12;100.00;100573.13;5090520;28;20204;-73
2022/10/14 00:45:55;;;;;;;0.80;0.80;;;;;;;14.18;100.00;100589.69;5090681;28;20213;-73
2022/10/14 00:48:26;;;;;;;0.70;0.70;;;;;;;14.27;100.00;100600.19;5090455;28;20205;-73
2022/10/14 00:50:56;;;;;;;0.60;0.60;;;;;;;14.11;100.00;100571.38;5090679;28;20201;-73
2022/10/14 00:53:24;;;;;;;0.73;0.73;;;;;;;14.20;100.00;100595.78;5090581;28;20607;-73
2022/10/14 00:55:50;;;;;;;0.70;0.70;;;;;;;14.12;100.00;100574.00;5090478;28;20233;-73
2022/10/14 00:58:17;;;;;;;0.70;0.70;;;;;;;14.14;100.00;100579.22;5071589;28;20202;-73
2022/10/14 01:00:44;;;;;;;0.60;0.60;;;;;;;14.17;100.00;100595.78;5090588;28;20256;-73
2022/10/14 01:03:18;;;;;;;0.70;0.70;;;;;;;14.07;100.00;100567.88;5090189;28;20213;-73
2022/10/14 01:05:53;;;;;;;0.70;0.70;;;;;;;14.28;100.00;100599.34;5090509;28;20669;-73
2022/10/14 01:08:25;;;;;;;0.60;0.60;;;;;;;13.89;100.00;100533.81;5090621;28;20201;-73
2022/10/14 01:11:02;;;;;;;0.80;0.80;;;;;;;14.35;100.00;100603.78;5090338;28;20194;-73
2022/10/14 01:13:33;;;;;;;0.70;0.70;;;;;;;14.36;100.00;100589.88;5090265;28;20694;-73
2022/10/14 01:16:13;;;;;;;0.60;0.60;;;;;;;14.39;100.00;100594.25;5090322;28;20236;-73
2022/10/14 01:18:56;;;;;;;0.75;0.75;;;;;;;14.35;100.00;100598.56;5054375;28;20230;-73
2022/10/14 01:21:30;;;;;;;0.70;0.70;;;;;;;14.21;100.00;100581.00;5092463;28;20204;-73
2022/10/14 01:24:41;;;;;;;0.80;0.80;;;;;;;14.33;100.00;100604.59;5094132;28;20196;-73
2022/10/14 01:27:36;;;;;;;0.75;0.75;;;;;;;14.32;100.00;100603.72;4992090;28;20819;-73
2022/10/14 01:30:11;;;;;;;0.70;0.70;;;;;;;14.26;100.00;100602.81;4992462;28;20193;-73
2022/10/14 01:32:49;;;;;;;0.60;0.60;;;;;;;14.21;100.00;100604.50;4992382;28;20216;-73
2022/10/14 01:35:23;;;;;;;0.70;0.70;;;;;;;14.14;100.00;100607.91;4992150;28;20197;-73
2022/10/14 01:37:55;;;;;;;0.70;0.70;;;;;;;14.16;100.00;100595.78;4991977;28;20751;-73
2022/10/14 01:40:29;;;;;;;0.90;0.90;;;;;;;14.15;100.00;100586.19;4991858;28;20228;-73
2022/10/14 01:42:57;;;;;;;0.60;0.60;;;;;;;14.06;100.00;100586.09;4992078;28;20685;-73
2022/10/14 01:45:29;;;;;;;0.60;0.60;;;;;;;14.18;100.00;100587.09;4975586;28;20198;-73
2022/10/14 01:47:58;;;;;;;1.15;1.15;;;;;;;14.12;100.00;100587.03;4960539;28;20202;-73
2022/10/14 01:50:28;;;;;;;0.63;0.63;;;;;;;14.16;100.00;100583.56;4991947;28;20210;-73
2022/10/14 01:53:00;;;;;;;0.70;0.70;;;;;;;14.13;100.00;100585.28;4991930;28;20198;-73
2022/10/14 01:55:30;;;;;;;0.70;0.70;;;;;;;14.12;100.00;100584.44;4991919;28;20218;-74
2022/10/14 01:57:58;;;;;;;0.70;0.70;;;;;;;14.07;100.00;100580.91;4992085;28;20234;-73
2022/10/14 02:00:26;;;;;;;0.70;0.70;;;;;;;13.91;100.00;100563.41;4991991;28;20240;-73
2022/10/14 02:02:53;;;;;;;0.75;0.75;;;;;;;13.94;100.00;100586.88;5002775;28;20196;-74
2022/10/14 02:05:26;;;;;;;0.63;0.63;;;;;;;13.50;100.00;100486.53;5090393;28;20666;-73
2022/10/14 02:07:58;;;;;;;0.70;0.70;;;;;;;13.98;100.00;100575.63;5093500;28;20199;-73
2022/10/14 02:10:36;;;;;;;0.80;0.80;;;;;;;13.43;100.00;100492.53;5058241;28;20206;-73
2022/10/14 02:13:20;;;;;;;0.60;0.60;;;;;;;14.07;100.00;100583.50;5093977;28;20792;-73
2022/10/14 02:15:58;;;;;;;0.70;0.70;;;;;;;14.11;100.00;100581.81;5093862;28;20651;-73
2022/10/14 02:18:33;;;;;;;0.70;0.70;;;;;;;14.07;100.00;100586.13;5093572;28;20238;-73
2022/10/14 02:21:09;;;;;;;0.60;0.60;;;;;;;14.05;100.00;100577.44;5093229;28;20198;-73
2022/10/14 02:23:43;;;;;;;0.70;0.70;;;;;;;13.89;100.00;100583.34;5093185;28;20229;-73
2022/10/14 02:26:11;;;;;;;0.60;0.60;;;;;;;13.43;100.00;100574.19;5093191;28;20201;-73
2022/10/14 02:28:41;;;;;;;0.70;0.70;;;;;;;13.37;100.00;100575.00;5093018;28;20647;-73
2022/10/14 02:31:13;;;;;;;0.70;0.70;;;;;;;13.25;100.00;100573.97;5092914;28;20255;-73
2022/10/14 02:33:44;;;;;;;0.80;0.80;;;;;;;13.05;100.00;100570.22;5092089;28;20190;-73
2022/10/14 02:36:14;;;;;;;0.60;0.60;;;;;;;12.90;100.00;100563.06;5057197;28;20623;-73
2022/10/14 02:38:43;;;;;;;1.15;1.15;;;;;;;12.81;100.00;100566.41;5092892;28;20209;-73
2022/10/14 02:41:15;;;;;;;0.70;0.70;;;;;;;12.70;100.00;100547.16;5092958;28;20202;-73
2022/10/14 02:43:43;;;;;;;0.70;0.70;;;;;;;12.68;100.00;100566.22;5092954;28;20198;-73
2022/10/14 02:46:12;;;;;;;0.70;0.70;;;;;;;12.60;100.00;100550.50;5092797;28;20259;-73
2022/10/14 02:48:38;;;;;;;0.70;0.70;;;;;;;12.67;100.00;100560.16;5092965;28;20202;-73
2022/10/14 02:51:05;;;;;;;0.70;0.70;;;;;;;12.42;100.00;100519.91;5092639;28;20209;-73
2022/10/14 02:53:32;;;;;;;0.80;0.80;;;;;;;12.70;100.00;100567.16;5073650;28;20620;-73
2022/10/14 02:55:59;;;;;;;1.50;1.50;;;;;;;12.67;100.00;100561.88;5092464;28;20206;-73
2022/10/14 02:58:26;;;;;;;0.80;0.80;;;;;;;12.66;100.00;100573.16;5092444;28;20214;-75
2022/10/14 03:00:53;;;;;;;0.65;0.65;;;;;;;12.46;100.00;100530.34;5092516;28;20634;-73
2022/10/14 03:03:21;;;;;;;0.80;0.80;;;;;;;12.52;100.00;100507.91;5092618;28;20251;-73
2022/10/14 03:05:48;;;;;;;1.42;1.42;;;;;;;12.66;100.00;100560.13;5092257;28;20194;-73
2022/10/14 03:08:14;;;;;;;0.80;0.80;;;;;;;12.66;100.00;100563.63;5092210;28;20202;-74
2022/10/14 03:10:41;;;;;;;0.80;0.80;;;;;;;12.68;100.00;100556.69;5092498;28;20653;-73
2022/10/14 03:13:08;;;;;;;0.73;0.73;;;;;;;12.67;100.00;100560.16;5092387;28;20201;-73
2022/10/14 03:15:35;;;;;;;0.70;0.70;;;;;;;12.32;100.00;100496.34;5092337;28;20197;-73
2022/10/14 03:18:01;;;;;;;0.70;0.70;;;;;;;12.73;100.00;100561.97;5091801;28;20291;-73
2022/10/14 03:20:30;;;;;;;0.80;0.80;;;;;;;12.81;100.00;100562.94;5092086;28;20202;-73
2022/10/14 03:22:57;;;;;;;0.65;0.65;;;;;;;12.57;100.00;100544.38;5092068;28;20206;-73
2022/10/14 03:25:24;;;;;;;0.70;0.70;;;;;;;12.69;100.00;100563.66;5092286;28;20202;-73
2022/10/14 03:27:51;;;;;;;0.70;0.70;;;;;;;12.69;100.00;100571.47;5092097;28;20201;-73
2022/10/14 03:30:18;;;;;;;0.80;0.80;;;;;;;12.62;100.00;100551.41;5091925;28;20198;-73
2022/10/14 03:32:44;;;;;;;0.60;0.60;;;;;;;12.69;100.00;100568.00;5091870;28;20202;-73
2022/10/14 03:35:11;;;;;;;0.70;0.70;;;;;;;12.68;100.00;100574.03;5091706;28;20210;-73
2022/10/14 03:37:39;;;;;;;0.70;0.70;;;;;;;12.86;100.00;100569.97;5091876;28;20232;-74
2022/10/14 03:40:07;;;;;;;0.70;0.70;;;;;;;12.82;100.00;100564.69;5091652;28;20194;-74
2022/10/14 03:42:34;;;;;;;0.70;0.70;;;;;;;12.60;100.00;100549.63;5091719;28;20197;-74
2022/10/14 03:45:01;;;;;;;0.80;0.80;;;;;;;12.69;100.00;100570.59;5091171;28;20194;-75
2022/10/14 03:47:28;;;;;;;0.70;0.70;;;;;;;12.67;100.00;100559.25;5091467;28;20198;-73
2022/10/14 03:49:54;;;;;;;1.15;1.15;;;;;;;12.71;100.00;100553.25;5091536;28;20194;-74
2022/10/14 03:52:21;;;;;;;0.90;0.90;;;;;;;12.62;100.00;100558.34;5091576;28;20677;-74
2022/10/14 03:54:49;;;;;;;0.60;0.60;;;;;;;12.72;100.00;100565.41;5091504;28;20202;-74
2022/10/14 03:57:16;;;;;;;0.70;0.70;;;;;;;12.54;100.00;100555.63;5091447;28;20230;-73
2022/10/14 03:59:43;;;;;;;0.70;0.70;;;;;;;12.46;100.00;100554.63;5091239;28;20201;-74
2022/10/14 04:02:10;;;;;;;2.05;1.23;;;;;;;12.36;100.00;100561.44;5091082;28;20202;-74
2022/10/14 04:04:36;;;;;;;0.73;0.73;;;;;;;12.38;100.00;100557.13;5091264;28;20198;-73
2022/10/14 04:07:03;;;;;;;1.05;1.05;;;;;;;12.36;100.00;100556.22;5091068;28;20205;-73
2022/10/14 04:09:30;;;;;;;0.70;0.70;;;;;;;12.32;100.00;100549.22;5091155;28;20194;-74
2022/10/14 04:11:59;;;;;;;0.80;0.80;;;;;;;12.24;100.00;100513.56;5090957;28;20202;-73
2022/10/14 04:14:26;;;;;;;0.70;0.70;;;;;;;12.31;100.00;100542.28;5091178;28;20274;-73
2022/10/14 04:16:53;;;;;;;0.70;0.70;;;;;;;12.04;100.00;100508.06;5090633;28;20317;-74
2022/10/14 04:19:20;;;;;;;0.60;0.60;;;;;;;12.19;100.00;100542.09;5091294;28;20201;-74
2022/10/14 04:21:46;;;;;;;0.70;0.70;;;;;;;12.21;100.00;100542.09;5091296;28;20202;-73
2022/10/14 04:24:15;;;;;;;0.70;0.70;;;;;;;12.24;100.00;100544.75;5090852;28;20206;-74
2022/10/14 04:26:42;;;;;;;0.70;0.70;;;;;;;12.15;100.00;100539.41;5090865;28;20203;-74
2022/10/14 04:29:11;;;;;;;0.60;0.60;;;;;;;12.21;100.00;100542.09;5090601;28;20685;-73
2022/10/14 04:31:37;;;;;;;0.75;0.75;;;;;;;12.19;100.00;100542.09;5090502;28;20198;-74
2022/10/14 04:34:04;;;;;;;0.65;0.65;;;;;;;12.21;100.00;100535.19;5090949;28;20194;-74
2022/10/14 04:36:31;;;;;;;0.77;0.77;;;;;;;12.16;100.00;100534.25;5090670;28;20194;-75
2022/10/14 04:38:58;;;;;;;0.70;0.70;;;;;;;12.07;100.00;100523.69;5090962;28;20205;-74
2022/10/14 04:41:24;;;;;;;0.65;0.65;;;;;;;12.14;100.00;100540.25;5091126;28;20194;-74
2022/10/14 04:43:51;;;;;;;0.70;0.70;;;;;;;12.17;100.00;100543.78;5090494;28;20666;-75
2022/10/14 04:46:19;;;;;;;0.70;0.70;;;;;;;12.35;100.00;100546.66;5090669;28;20666;-72
2022/10/14 04:48:47;;;;;;;0.70;0.70;;;;;;;12.38;100.00;100544.13;5071747;28;20210;-74
2022/10/14 04:51:14;;;;;;;0.80;0.80;;;;;;;12.03;100.00;100490.72;5091011;28;20206;-73
2022/10/14 04:53:41;;;;;;;0.90;0.90;;;;;;;12.41;100.00;100551.13;5090456;28;20201;-73
2022/10/14 04:56:08;;;;;;;0.77;0.77;;;;;;;12.43;100.00;100547.66;5089545;28;20201;-73
2022/10/14 04:58:35;;;;;;;0.68;0.68;;;;;;;12.51;100.00;100546.91;5090436;28;20213;-74
2022/10/14 05:01:02;;;;;;;0.70;0.70;;;;;;;12.57;100.00;100545.25;5054875;28;20187;-74
2022/10/14 05:03:30;;;;;;;0.60;0.60;;;;;;;12.58;100.00;100546.16;5090677;28;20193;-73
2022/10/14 05:05:57;;;;;;;0.70;0.70;;;;;;;12.53;100.00;100540.88;5090361;28;20197;-74
2022/10/14 05:08:23;;;;;;;0.70;0.70;;;;;;;12.64;100.00;100547.09;5090234;28;20206;-73
2022/10/14 05:10:51;;;;;;;0.80;0.80;;;;;;;12.50;100.00;100511.34;5090340;28;20654;-73
2022/10/14 05:13:18;;;;;;;0.70;0.70;;;;;;;12.59;100.00;100537.50;5090276;28;20201;-73
2022/10/14 05:15:44;;;;;;;0.70;0.70;;;;;;;12.74;100.00;100548.09;5090611;28;20194;-73
2022/10/14 05:18:12;;;;;;;0.70;0.70;;;;;;;12.83;100.00;100545.63;5090399;28;20233;-73
2022/10/14 05:20:40;;;;;;;0.80;0.80;;;;;;;12.92;100.00;100537.94;5090306;28;20232;-73
2022/10/14 05:23:07;;;;;;;0.80;0.80;;;;;;;12.87;100.00;100535.28;5090168;28;20202;-73
2022/10/14 05:25:34;;;;;;;0.80;0.80;;;;;;;12.87;100.00;100534.41;5089813;28;20194;-73
2022/10/14 05:28:01;;;;;;;0.80;0.80;;;;;;;13.13;100.00;100551.25;5090350;28;20223;-73
2022/10/14 05:30:27;;;;;;;0.70;0.70;;;;;;;13.15;100.00;100541.75;5090152;28;20229;-73
2022/10/14 05:32:54;;;;;;;0.70;0.70;;;;;;;12.98;100.00;100514.59;5071166;28;20209;-73
2022/10/14 05:35:21;;;;;;;0.70;0.70;;;;;;;13.10;100.00;100553.81;5090139;28;20205;-73
2022/10/14 05:37:54;;;;;;;0.70;0.70;;;;;;;13.25;100.00;100554.00;5054281;28;20601;-73
2022/10/14 05:40:21;;;;;;;0.70;0.70;;;;;;;13.11;100.00;100549.47;5089940;28;20190;-74
2022/10/14 05:42:48;;;;;;;0.70;0.70;;;;;;;12.98;100.00;100535.44;5090257;28;20228;-73
2022/10/14 05:45:15;;;;;;;0.70;0.70;;;;;;;13.18;100.00;100557.41;5090057;28;20198;-73
2022/10/14 05:47:43;;;;;;;0.60;0.60;;;;;;;12.63;100.00;100436.06;5090052;28;20205;-72
2022/10/14 05:50:10;;;;;;;0.70;0.70;;;;;;;13.44;100.00;100556.81;5090033;28;20194;-72
2022/10/14 05:52:39;;;;;;;0.70;0.70;;;;;;;13.55;100.00;100558.69;5089665;28;20202;-75
2022/10/14 05:55:09;;;;;;;0.70;0.70;;;;;;;13.63;100.00;100543.09;5089807;28;20255;-73
2022/10/14 05:57:36;;;;;;;0.70;0.70;;;;;;;13.76;100.00;100558.03;5054047;28;20214;-73
2022/10/14 06:00:04;;;;;;;0.70;0.70;;;;;;;13.90;100.00;100546.88;5089925;28;20199;-73
2022/10/14 06:02:32;;;;;;;0.70;0.70;;;;;;;13.88;100.00;100561.59;5090126;28;20209;-73
2022/10/14 06:04:58;;;;;;;0.70;0.70;;;;;;;13.79;100.00;100532.00;5089903;28;20199;-73
2022/10/14 06:07:25;;;;;;;0.70;0.70;;;;;;;14.03;100.00;100568.69;5091849;28;20194;-72
2022/10/14 06:09:52;;;;;;;0.60;0.60;;;;;;;14.17;100.00;100571.41;5093333;28;20205;-74
2022/10/14 06:12:20;;;;;;;0.70;0.70;;;;;;;14.03;100.00;100578.25;5093298;28;20201;-73
2022/10/14 06:14:47;;;;;;;0.73;0.73;;;;;;;13.89;100.00;100571.19;5093338;28;20199;-73
2022/10/14 06:17:14;;;;;;;0.75;0.75;;;;;;;13.64;100.00;100547.47;5093109;28;20607;-73
2022/10/14 06:19:41;;;;;;;0.65;0.65;;;;;;;14.00;100.00;100573.88;5093110;28;20204;-74
2022/10/14 06:22:07;;;;;;;0.80;0.80;;;;;;;13.81;100.00;100572.84;5093144;28;20206;-74
2022/10/14 06:24:34;;;;;;;0.80;0.80;;;;;;;13.74;100.00;100565.81;5093164;28;20205;-73
2022/10/14 06:27:01;;;;;;;1.35;1.35;;;;;;;13.58;100.00;100568.25;5057442;28;20255;-73
2022/10/14 06:29:36;;;;;;;0.70;0.70;;;;;;;13.81;100.00;100569.34;5093132;28;20213;-73
2022/10/14 06:32:03;;;;;;;0.60;0.60;;;;;;;13.73;100.00;100552.78;5092942;28;20292;-73
2022/10/14 06:34:30;;;;;;;0.70;0.70;;;;;;;13.88;100.00;100579.84;5092781;28;20201;-72
2022/10/14 06:36:57;;;;;;;0.80;0.80;;;;;;;13.87;100.00;100572.03;5092745;28;20665;-73
2022/10/14 06:39:24;;;;;;;0.70;0.70;;;;;;;14.00;100.00;100573.88;5092710;28;20224;-72
2022/10/14 06:41:51;;;;;;;0.70;0.70;;;;;;;13.88;100.00;100569.44;5092701;28;20198;-73
2022/10/14 06:44:17;;;;;;;0.70;0.70;;;;;;;14.16;100.00;100570.53;5092611;28;20201;-73
2022/10/14 06:46:46;;;;;;;0.85;0.85;;;;;;;14.16;100.00;100578.34;5092626;28;20201;-73
2022/10/14 06:49:13;;;;;;;0.70;0.70;;;;;;;14.07;100.00;100577.41;5092868;28;20205;-73
2022/10/14 06:51:40;;;;;;;0.70;0.70;;;;;;;14.19;100.00;100574.94;5092840;28;20205;-73
2022/10/14 06:54:07;;;;;;;0.60;0.60;;;;;;;14.04;100.00;100541.78;5092309;28;20208;-73
2022/10/14 06:56:34;;;;;;;1.50;1.50;;;;;;;14.28;100.00;100570.66;5092620;28;20198;-72
2022/10/14 06:59:01;;;;;;;0.75;0.75;;;;;;;14.34;100.00;100575.06;5092158;28;20257;-75
2022/10/14 07:01:28;;;;;;;0.70;0.70;;;;;;;14.38;100.00;100577.72;5092263;28;20205;-72
2022/10/14 07:03:56;;;;;;;0.70;0.70;;;;;;;14.69;100.00;100575.31;5092672;28;20202;-73
2022/10/14 07:06:23;;;;;;;0.85;0.85;;;;;;;14.49;100.00;100553.44;5092242;28;20212;-73
2022/10/14 07:08:49;;;;;;;0.60;0.60;;;;;;;15.01;100.00;100571.16;5092230;28;20682;-73
2022/10/14 07:11:16;;;;;;;0.60;0.60;;;;;;;15.13;100.00;100576.41;5092212;28;20681;-73
2022/10/14 07:13:43;;;;;;;1.20;1.20;;;;;;;15.37;100.00;100581.72;5092012;28;20198;-73
2022/10/14 07:16:10;;;;;;;0.68;0.68;;;;;;;15.37;100.00;100581.72;5091971;28;20198;-73
2022/10/14 07:18:37;;;;;;;0.80;0.80;;;;;;;15.57;100.00;100574.00;5091085;28;20238;-73
2022/10/14 07:21:06;;;;;;;0.60;0.60;;;;;;;15.70;100.00;100582.72;5092287;28;20659;-73
2022/10/14 07:23:33;;;;;;;0.60;0.60;;;;;;;15.67;100.00;100587.97;5092012;28;20226;-72
2022/10/14 07:26:00;;;;;;;0.75;0.75;;;;;;;15.45;100.00;100583.50;5091684;28;20556;-72
2022/10/14 07:28:27;;;;;;;0.68;0.68;;;;;;;15.36;100.00;100559.09;5091680;28;20194;-73
2022/10/14 07:30:58;;;;;;;0.68;0.68;;;;;;;15.77;100.00;100576.66;5092007;28;20206;-73
2022/10/14 07:33:25;;;;;;;0.60;0.60;;;;;;;15.76;100.00;100573.19;5073206;28;20701;-73
2022/10/14 07:35:52;;;;;;;1.10;1.10;;;;;;;15.75;100.00;100554.88;5091824;28;20608;-73
2022/10/14 07:38:20;;;;;;;0.70;0.70;;;;;;;15.86;100.00;100582.78;5091554;28;20225;-73
2022/10/14 07:40:57;;;;;;;0.60;0.60;;;;;;;15.86;100.00;100546.19;5091599;28;20205;-73
2022/10/14 07:43:23;;;;;;;0.70;0.70;;;;;;;16.16;100.00;100574.06;5091820;28;20205;-72
2022/10/14 07:45:50;;;;;;;0.60;0.60;;;;;;;15.99;100.00;100544.44;5091479;28;20198;-73
2022/10/14 07:48:17;;;;;;;0.70;0.70;;;;;;;16.29;100.00;100583.69;5091657;28;20194;-75
2022/10/14 07:50:50;;;;;;;0.70;0.70;;;;;;;16.54;100.00;100589.78;5091296;28;20282;-72
2022/10/14 07:53:18;;;;;;;6.53;2.42;;;;;;;16.57;100.00;100581.94;5091149;28;20674;-73
2022/10/14 07:55:50;;;;;;;0.70;0.70;;;;;;;16.87;100.00;100586.28;5072560;28;20688;-73
2022/10/14 07:58:18;;;;;;;0.70;0.70;;;;;;;16.86;100.00;100576.66;5091394;28;20290;-73
2022/10/14 08:00:46;;;;;;;0.80;0.80;;;;;;;17.05;100.00;100577.47;5091182;28;20206;-73
2022/10/14 08:03:12;;;;;;;0.70;0.70;;;;;;;16.91;100.00;100517.25;5091235;28;20199;-73
2022/10/14 08:05:39;;;;;;;0.60;0.60;;;;;;;17.41;100.00;100579.09;5072221;28;20206;-73
2022/10/14 08:08:06;;;;;;;0.60;0.60;;;;;;;17.39;100.00;100565.09;5090869;28;20194;-73
2022/10/14 08:10:34;;;;;;;0.80;0.80;;;;;;;17.53;100.00;100584.25;5091256;28;20662;-73
2022/10/14 08:13:02;;;;;;;0.60;0.60;;;;;;;17.61;100.00;100590.38;5072089;28;20194;-74
2022/10/14 08:15:33;;;;;;;0.80;0.80;;;;;;;17.64;100.00;100579.84;5091112;28;20210;-73
2022/10/14 08:18:00;;;;;;;0.70;0.70;;;;;;;17.63;100.00;100558.00;5090713;28;20236;-73
2022/10/14 08:20:27;;;;;;;0.60;0.60;;;;;;;17.87;100.00;100588.47;5090990;28;20206;-73
2022/10/14 08:22:54;;;;;;;0.70;0.70;;;;;;;18.01;100.00;100575.25;5090839;28;20228;-72
2022/10/14 08:25:21;;;;;;;0.80;0.80;;;;;;;18.02;100.00;100577.84;5090977;28;20195;-74
2022/10/14 08:27:50;;;;;;;0.70;0.70;;;;;;;18.27;100.00;100574.16;5090820;28;20198;-74
2022/10/14 08:30:18;;;;;;;0.60;0.60;;;;;;;18.35;100.00;100571.47;5091128;28;20657;-74
2022/10/14 08:32:45;;;;;;;0.60;0.60;;;;;;;18.33;100.00;100560.97;5090755;28;20191;-75
2022/10/14 08:35:12;;;;;;;0.70;0.70;;;;;;;18.50;100.00;100570.44;5090603;28;20198;-74
2022/10/14 08:37:39;;;;;;;0.60;0.60;;;;;;;18.57;100.00;100572.16;5090687;28;20194;-74
2022/10/14 08:40:07;;;;;;;0.60;0.60;;;;;;;18.84;100.00;100577.13;5091007;28;20248;-74
2022/10/14 08:42:44;;;;;;;0.68;0.68;;;;;;;19.04;100.00;100582.19;5090943;28;20194;-73
2022/10/14 08:45:17;;;;;;;1.40;1.30;;;;;;;19.21;100.00;100583.72;5090840;28;20194;-75
2022/10/14 08:47:47;;;;;;;0.70;0.70;;;;;;;19.33;99.47;100559.03;5090628;28;20190;-74
2022/10/14 08:50:25;;;;;;;0.60;0.60;;;;;;;19.66;98.02;100576.13;5090601;28;20208;-74
2022/10/14 08:52:57;;;;;;;0.60;0.60;;;;;;;19.68;96.78;100558.59;5090367;28;20197;-74
2022/10/14 08:55:32;;;;;;;0.60;0.60;;;;;;;19.69;95.82;100555.06;5090510;28;20202;-74
2022/10/14 08:58:05;;;;;;;0.73;0.73;;;;;;;19.98;94.28;100579.16;5090129;28;20665;-74
2022/10/14 09:00:34;;;;;;;0.60;0.60;;;;;;;19.49;95.14;100576.38;5090302;28;20197;-73
2022/10/14 09:03:11;;;;;;;0.70;0.70;;;;;;;20.05;94.45;100574.66;5090618;28;20204;-73
2022/10/14 09:05:39;;;;;;;1.23;1.23;;;;;;;19.93;96.68;100574.88;5090429;28;20201;-73
2022/10/14 09:08:07;;;;;;;0.70;0.70;;;;;;;19.90;93.72;100578.44;5090093;28;20220;-73
2022/10/14 09:10:39;;;;;;;0.70;0.70;;;;;;;19.85;94.21;100546.03;5090181;28;20205;-73
2022/10/14 09:13:14;;;;;;;0.60;0.60;;;;;;;19.96;93.04;100575.69;5090532;28;20198;-73
2022/10/14 09:15:44;;;;;;;1.25;1.23;;;;;;;20.23;92.09;100577.88;5090265;28;20212;-74
2022/10/14 09:18:25;;;;;;;0.70;0.70;;;;;;;20.39;89.82;100575.91;5089907;28;20234;-73
2022/10/14 09:20:53;;;;;;;0.57;0.57;;;;;;;20.21;89.20;100571.78;5090145;28;20198;-74
2022/10/14 09:23:22;;;;;;;0.98;0.98;;;;;;;19.82;91.65;100563.63;5090105;28;20202;-74
2022/10/14 09:25:57;;;;;;;0.70;0.70;;;;;;;20.07;90.87;100555.34;5090391;28;20194;-73
2022/10/14 09:28:35;;;;;;;0.80;0.80;;;;;;;20.32;88.26;100569.00;5090214;28;20202;-73
2022/10/14 09:31:02;;;;;;;0.55;0.55;;;;;;;20.31;88.06;100571.66;5090508;28;20205;-74
2022/10/14 09:33:30;;;;;;;0.63;0.63;;;;;;;20.46;87.34;100574.03;5090134;28;20205;-74
2022/10/14 09:35:57;;;;;;;0.70;0.70;;;;;;;20.46;87.61;100571.41;5054319;28;20186;-74
2022/10/14 09:38:25;;;;;;;1.85;1.75;;;;;;;20.40;85.56;100571.50;5090033;28;20241;-74
2022/10/14 09:40:56;;;;;;;0.63;0.63;;;;;;;20.72;82.89;100563.91;5090251;28;20194;-74
2022/10/14 09:43:24;;;;;;;0.60;0.60;;;;;;;20.59;83.02;100562.38;5094058;28;20198;-74
2022/10/14 09:45:58;;;;;;;0.60;0.60;;;;;;;20.63;82.42;100561.41;5093869;28;20194;-74
2022/10/14 09:48:33;;;;;;;1.13;1.02;;;;;;;20.64;81.00;100557.91;5094183;28;20202;-74
2022/10/14 09:51:01;;;;;;;0.82;0.82;;;;;;;20.49;81.58;100566.06;5093864;28;20202;-73
2022/10/14 09:53:30;;;;;;;0.70;0.70;;;;;;;20.84;81.20;100560.16;5075253;28;20580;-74
2022/10/14 09:55:59;;;;;;;0.70;0.70;;;;;;;20.56;81.97;100550.13;5093623;28;20213;-74
2022/10/14 09:58:33;;;;;;;0.70;0.70;;;;;;;20.66;81.64;100493.72;5093595;28;20202;-74
2022/10/14 10:01:01;;;;;;;0.60;0.60;;;;;;;20.84;83.63;100562.78;5041842;28;20193;-73
2022/10/14 10:03:32;;;;;;;0.88;0.88;;;;;;;20.68;81.72;100541.13;5093778;28;20199;-74
2022/10/14 10:06:02;;;;;;;0.70;0.70;;;;;;;20.85;83.77;100560.13;5093403;28;20198;-73
2022/10/14 10:08:28;;;;;;;0.80;0.80;;;;;;;20.85;82.87;100559.25;5093442;28;20202;-74
2022/10/14 10:11:01;;;;;;;0.60;0.60;;;;;;;21.12;79.81;100554.31;5074427;28;20662;-75
2022/10/14 10:13:34;;;;;;;0.68;0.68;;;;;;;21.16;79.24;100548.09;5093606;28;20198;-74
2022/10/14 10:16:02;;;;;;;0.60;0.60;;;;;;;21.13;79.40;100545.53;5093506;28;20431;-74
2022/10/14 10:18:30;;;;;;;0.60;0.60;;;;;;;21.09;79.45;100548.22;5093133;28;20238;-74
2022/10/14 10:21:05;;;;;;;0.77;0.77;;;;;;;20.78;81.13;100505.78;5092897;28;20217;-75
2022/10/14 10:23:36;;;;;;;0.70;0.70;;;;;;;21.20;81.53;100541.00;5092967;28;20232;-73
2022/10/14 10:26:16;;;;;;;0.60;0.60;;;;;;;21.46;80.15;100543.06;5093005;28;20202;-75
2022/10/14 10:28:46;;;;;;;0.70;0.70;;;;;;;;;;5090974;28;20276;-73
2022/10/14 10:31:24;;;;;;;0.68;0.68;;;;;;;21.02;80.42;100533.41;5092707;28;20225;-73
2022/10/14 10:34:01;;;;;;;0.70;0.70;;;;;;;20.97;80.34;100533.53;5092849;28;20190;-73
2022/10/14 10:36:32;;;;;;;0.70;0.70;;;;;;;20.81;81.17;100524.19;5092761;28;20197;-73
2022/10/14 10:39:05;;;;;;;0.60;0.60;;;;;;;20.73;82.91;100524.31;5092737;28;20258;-73
2022/10/14 10:41:53;;;;;;;0.80;0.80;;;;;;;21.13;80.32;100519.16;5092796;28;20198;-73
2022/10/14 10:44:44;;;;;;;0.60;0.60;;;;;;;21.14;81.46;100515.63;5050247;28;20294;-74
2022/10/14 10:47:21;;;;;;;0.90;0.90;;;;;;;21.24;78.77;100493.41;5050091;28;20234;-73
2022/10/14 10:50:03;;;;;;;0.77;0.77;;;;;;;21.26;78.61;100514.47;5049953;28;20278;-73
2022/10/14 10:52:43;;;;;;;0.70;0.70;;;;;;;21.15;78.39;100500.69;5049394;28;20752;-73
2022/10/14 10:55:24;;;;;;;0.60;0.60;;;;;;;21.25;79.12;100505.72;5049313;28;20199;-73
2022/10/14 10:58:01;;;;;;;0.63;0.63;;;;;;;21.26;78.39;100503.91;5049858;28;20711;-74
2022/10/14 11:00:34;;;;;;;0.60;0.60;;;;;;;21.10;79.88;100487.56;5000417;28;20314;-73
2022/10/14 11:03:16;;;;;;;0.70;0.70;;;;;;;20.99;79.07;100497.44;5050036;28;20196;-73
2022/10/14 11:05:50;;;;;;;0.60;0.60;;;;;;;21.30;78.51;100488.94;5049745;28;20791;-73
2022/10/14 11:14:30;;;;;;;0.70;0.70;;;;;;;21.27;75.93;100488.06;4951838;28;20202;-74
2022/10/14 11:17:06;;;;;;;0.90;0.90;;;;;;;21.45;75.75;100478.88;4951320;29;20195;-74
2022/10/14 11:19:39;;;;;;;0.60;0.60;;;;;;;21.47;76.47;100452.47;4951405;28;20238;-74
2022/10/14 11:22:19;;;;;;;0.88;0.88;;;;;;;21.46;77.49;100477.97;4994596;28;20219;-74
2022/10/14 11:24:53;;;;;;;0.90;0.90;;;;;;;21.12;78.91;100411.91;5009959;28;20216;-74
2022/10/14 11:27:30;;;;;;;0.60;0.60;;;;;;;21.86;77.65;100475.25;5009831;28;20203;-73
2022/10/14 11:30:19;;;;;;;0.60;0.60;;;;;;;21.91;79.41;100468.09;5009484;28;20276;-75
2022/10/14 11:33:10;;;;;;;0.70;0.70;;;;;;;21.50;80.94;100452.38;5009756;28;20204;-74
2022/10/14 11:35:50;;;;;;;1.05;1.05;;;;;;;21.64;81.13;100463.47;5010140;28;20205;-72
2022/10/14 11:38:38;;;;;;;0.63;0.63;;;;;;;21.62;80.52;100465.28;5009503;28;20200;-73